createdAt,value
2018-04-08T00:00:45.611Z,6.30
2018-04-08T00:03:13.071Z,7.30
2018-04-08T00:05:40.545Z,5.70
2018-04-08T00:08:08.767Z,6.60
2018-04-08T00:10:36.248Z,6.40
2018-04-08T00:13:03.812Z,6.10
2018-04-08T00:15:31.374Z,6.20
2018-04-08T00:17:58.938Z,5.80
2018-04-08T00:20:26.398Z,6.40
2018-04-08T00:22:53.907Z,6.63
2018-04-08T00:25:21.400Z,6.00
2018-04-08T00:27:50.385Z,6.20
2018-04-08T00:30:17.953Z,6.27
2018-04-08T00:32:45.415Z,5.90
2018-04-08T00:35:13.029Z,6.67
2018-04-08T00:37:40.485Z,6.80
2018-04-08T00:40:08.044Z,5.33
2018-04-08T00:42:35.552Z,6.00
2018-04-08T00:45:03.030Z,5.90
2018-04-08T00:47:31.252Z,6.10
2018-04-08T00:49:58.716Z,6.87
2018-04-08T00:52:26.183Z,5.80
2018-04-08T00:54:53.648Z,6.80
2018-04-08T00:57:21.210Z,6.77
2018-04-08T00:59:49.469Z,6.67
2018-04-08T01:02:17.034Z,5.97
2018-04-08T01:04:44.501Z,6.87
2018-04-08T01:07:12.058Z,6.67
2018-04-08T01:09:39.529Z,6.47
2018-04-08T01:12:07.791Z,6.40
2018-04-08T01:14:35.252Z,6.57
2018-04-08T01:17:02.722Z,7.00
2018-04-08T01:19:30.988Z,6.30
2018-04-08T01:21:59.222Z,6.67
2018-04-08T01:24:26.703Z,6.50
2018-04-08T01:26:54.943Z,8.00
2018-04-08T01:29:22.415Z,7.70
2018-04-08T01:31:49.905Z,7.60
2018-04-08T01:34:17.452Z,7.37
2018-04-08T01:36:44.917Z,6.50
2018-04-08T01:39:12.426Z,7.00
2018-04-08T01:41:39.929Z,6.83
2018-04-08T01:44:07.392Z,6.80
2018-04-08T01:46:34.940Z,7.37
2018-04-08T01:49:02.401Z,7.00
2018-04-08T01:51:29.940Z,6.83
2018-04-08T01:53:57.415Z,6.80
2018-04-08T01:56:24.969Z,6.57
2018-04-08T01:58:52.532Z,7.00
2018-04-08T02:01:19.996Z,6.40
2018-04-08T02:03:47.504Z,6.20
2018-04-08T02:06:14.972Z,6.70
2018-04-08T02:08:42.465Z,5.43
2018-04-08T02:11:09.930Z,6.53
2018-04-08T02:13:38.160Z,6.30
2018-04-08T02:16:05.616Z,5.47
2018-04-08T02:18:33.086Z,6.03
2018-04-08T02:21:00.553Z,6.40
2018-04-08T02:23:28.129Z,6.30
2018-04-08T02:25:55.682Z,6.53
2018-04-08T02:28:23.194Z,6.90
2018-04-08T02:30:50.662Z,5.70
2018-04-08T02:33:18.144Z,6.40
2018-04-08T02:35:45.609Z,6.37
2018-04-08T02:38:13.088Z,6.57
2018-04-08T02:40:41.346Z,6.67
2018-04-08T02:43:08.823Z,6.20
2018-04-08T02:45:37.046Z,6.50
2018-04-08T02:48:04.542Z,6.10
2018-04-08T02:50:32.009Z,6.07
2018-04-08T02:53:00.256Z,5.83
2018-04-08T02:55:28.494Z,7.00
2018-04-08T02:57:55.961Z,6.23
2018-04-08T03:00:23.462Z,6.70
2018-04-08T03:02:50.966Z,5.37
2018-04-08T03:05:18.473Z,5.90
2018-04-08T03:07:45.949Z,6.37
2018-04-08T03:10:13.413Z,5.68
2018-04-08T03:12:40.898Z,6.00
2018-04-08T03:15:08.392Z,6.53
2018-04-08T03:17:35.957Z,6.53
2018-04-08T03:20:03.434Z,5.90
2018-04-08T03:22:31.669Z,6.70
2018-04-08T03:24:59.250Z,6.13
2018-04-08T03:27:26.861Z,6.50
2018-04-08T03:29:54.356Z,6.10
2018-04-08T03:32:21.833Z,6.60
2018-04-08T03:34:50.088Z,6.23
2018-04-08T03:37:17.653Z,6.73
2018-04-08T03:39:45.213Z,6.33
2018-04-08T03:42:12.680Z,5.85
2018-04-08T03:44:40.934Z,6.23
2018-04-08T03:47:08.405Z,6.62
2018-04-08T03:49:35.880Z,6.40
2018-04-08T03:52:04.126Z,6.80
2018-04-08T03:54:31.597Z,6.20
2018-04-08T03:56:59.074Z,6.57
2018-04-08T03:59:27.318Z,7.10
2018-04-08T04:01:54.789Z,6.57
2018-04-08T04:04:23.035Z,7.73
2018-04-08T04:06:50.497Z,6.75
2018-04-08T04:09:17.977Z,7.25
2018-04-08T04:11:46.215Z,7.57
2018-04-08T04:14:13.693Z,6.80
2018-04-08T04:16:41.165Z,7.60
2018-04-08T04:22:25.116Z,7.10
2018-04-08T04:25:04.604Z,7.12
2018-04-08T04:27:32.078Z,6.32
2018-04-08T04:29:59.562Z,7.30
2018-04-08T04:32:27.027Z,7.78
2018-04-08T04:34:54.501Z,7.62
2018-04-08T04:37:22.724Z,8.55
2018-04-08T04:39:50.210Z,8.30
2018-04-08T04:42:17.682Z,7.93
2018-04-08T04:44:45.928Z,7.75
2018-04-08T04:47:13.407Z,7.65
2018-04-08T04:49:40.968Z,7.40
2018-04-08T04:52:08.445Z,7.62
2018-04-08T04:54:36.676Z,7.50
2018-04-08T04:57:04.266Z,7.87
2018-04-08T04:59:31.725Z,8.02
2018-04-08T05:01:59.964Z,7.87
2018-04-08T05:04:27.428Z,8.70
2018-04-08T05:06:54.918Z,7.30
2018-04-08T05:09:23.163Z,8.95
2018-04-08T05:11:50.641Z,8.55
2018-04-08T05:14:18.113Z,6.80
2018-04-08T05:16:46.340Z,7.72
2018-04-08T05:19:13.804Z,8.30
2018-04-08T05:21:41.285Z,9.20
2018-04-08T05:24:09.556Z,8.52
2018-04-08T05:26:37.029Z,9.07
2018-04-08T05:29:05.291Z,8.50
2018-04-08T05:31:32.849Z,8.45
2018-04-08T05:34:00.326Z,8.40
2018-04-08T05:36:28.640Z,10.82
2018-04-08T05:38:56.577Z,9.05
2018-04-08T05:41:24.167Z,8.40
2018-04-08T05:43:51.791Z,8.73
2018-04-08T05:46:20.269Z,7.80
2018-04-08T05:48:48.081Z,7.90
2018-04-08T05:51:15.778Z,9.20
2018-04-08T05:53:43.369Z,8.52
2018-04-08T05:56:10.850Z,7.75
2018-04-08T05:58:38.314Z,7.35
2018-04-08T06:01:05.785Z,7.75
2018-04-08T06:03:33.265Z,7.60
2018-04-08T06:06:00.737Z,8.23
2018-04-08T06:08:29.238Z,9.60
2018-04-08T06:10:56.810Z,8.98
2018-04-08T06:13:24.285Z,8.60
2018-04-08T06:15:51.762Z,8.52
2018-04-08T06:18:19.245Z,9.25
2018-04-08T06:20:47.545Z,8.53
2018-04-08T06:23:15.025Z,7.77
2018-04-08T06:25:42.505Z,8.55
2018-04-08T06:28:10.123Z,7.87
2018-04-08T06:30:37.757Z,8.90
2018-04-08T06:33:05.989Z,8.97
2018-04-08T06:35:33.453Z,8.87
2018-04-08T06:38:00.912Z,8.27
2018-04-08T06:40:28.377Z,7.80
2018-04-08T06:42:56.616Z,8.37
2018-04-08T06:45:24.106Z,8.70
2018-04-08T06:47:51.581Z,8.40
2018-04-08T06:50:19.054Z,8.20
2018-04-08T06:52:47.313Z,7.83
2018-04-08T06:55:14.794Z,8.60
2018-04-08T06:57:42.274Z,9.03
2018-04-08T07:00:09.741Z,9.43
2018-04-08T07:02:37.235Z,8.80
2018-04-08T07:05:04.696Z,7.53
2018-04-08T07:07:32.970Z,7.90
2018-04-08T07:10:00.427Z,8.43
2018-04-08T07:12:27.925Z,8.03
2018-04-08T07:14:55.381Z,7.97
2018-04-08T07:17:22.900Z,7.20
2018-04-08T07:19:50.508Z,9.00
2018-04-08T07:22:17.972Z,7.67
2018-04-08T07:24:45.535Z,7.27
2018-04-08T07:27:13.750Z,7.37
2018-04-08T07:29:41.221Z,8.03
2018-04-08T07:32:09.451Z,7.60
2018-04-08T07:34:36.913Z,7.40
2018-04-08T07:37:04.398Z,8.50
2018-04-08T07:39:31.877Z,7.13
2018-04-08T07:41:59.346Z,6.63
2018-04-08T07:44:26.834Z,7.20
2018-04-08T07:46:54.292Z,8.53
2018-04-08T07:49:21.766Z,7.70
2018-04-08T07:51:49.224Z,7.67
2018-04-08T07:54:16.695Z,7.23
2018-04-08T07:56:44.171Z,7.87
2018-04-08T07:59:11.734Z,8.20
2018-04-08T08:01:39.263Z,7.47
2018-04-08T08:04:06.813Z,7.97
2018-04-08T08:06:34.278Z,9.40
2018-04-08T08:09:01.850Z,7.30
2018-04-08T08:11:30.144Z,9.00
2018-04-08T08:13:57.670Z,7.37
2018-04-08T08:16:25.135Z,8.00
2018-04-08T08:18:52.601Z,7.50
2018-04-08T08:21:20.842Z,8.73
2018-04-08T08:23:48.319Z,7.63
2018-04-08T08:26:15.793Z,8.00
2018-04-08T08:28:44.062Z,8.90
2018-04-08T08:31:12.296Z,7.40
2018-04-08T08:33:39.778Z,8.40
2018-04-08T08:36:08.048Z,8.67
2018-04-08T08:38:35.520Z,8.33
2018-04-08T08:41:03.857Z,7.60
2018-04-08T08:43:31.454Z,8.50
2018-04-08T08:45:58.926Z,7.70
2018-04-08T08:48:27.701Z,7.77
2018-04-08T08:50:55.546Z,8.40
2018-04-08T08:53:23.019Z,7.83
2018-04-08T08:55:50.498Z,7.63
2018-04-08T08:58:18.748Z,8.47
2018-04-08T09:00:46.281Z,7.63
2018-04-08T09:03:13.866Z,7.87
2018-04-08T09:05:41.420Z,8.00
2018-04-08T09:08:08.876Z,7.07
2018-04-08T09:10:37.862Z,6.80
2018-04-08T09:13:05.387Z,7.87
2018-04-08T09:15:32.854Z,6.20
2018-04-08T09:18:00.327Z,7.37
2018-04-08T09:23:35.862Z,7.07
2018-04-08T09:26:05.774Z,7.30
2018-04-08T09:28:33.272Z,6.60
2018-04-08T09:31:00.738Z,7.33
2018-04-08T09:33:28.201Z,6.37
2018-04-08T09:35:55.752Z,7.20
2018-04-08T09:38:23.311Z,6.43
2018-04-08T09:40:50.781Z,6.40
2018-04-08T09:43:18.242Z,6.00
2018-04-08T09:45:46.558Z,6.17
2018-04-08T09:48:14.026Z,7.20
2018-04-08T09:50:41.498Z,6.70
2018-04-08T09:53:08.965Z,7.80
2018-04-08T09:55:36.434Z,7.20
2018-04-08T09:58:19.554Z,7.40
2018-04-08T10:03:53.570Z,6.63
2018-04-08T10:06:21.030Z,7.20
2018-04-08T10:08:48.587Z,7.47
2018-04-08T10:11:16.055Z,6.27
2018-04-08T10:13:43.515Z,5.40
2018-04-08T10:16:10.977Z,6.80
2018-04-08T10:18:38.446Z,6.63
2018-04-08T10:21:06.677Z,7.07
2018-04-08T10:23:34.143Z,5.70
2018-04-08T10:26:01.617Z,6.27
2018-04-08T10:28:29.069Z,6.90
2018-04-08T10:30:57.318Z,6.73
2018-04-08T10:33:24.781Z,6.40
2018-04-08T10:35:52.251Z,6.50
2018-04-08T10:38:19.710Z,6.90
2018-04-08T10:40:47.206Z,6.40
2018-04-08T10:43:14.670Z,6.00
2018-04-08T10:45:42.176Z,6.23
2018-04-08T10:48:11.145Z,6.37
2018-04-08T10:50:38.617Z,6.13
2018-04-08T10:53:06.078Z,6.37
2018-04-08T10:55:33.533Z,5.60
2018-04-08T10:58:00.992Z,5.97
2018-04-08T11:00:28.465Z,5.83
2018-04-08T11:02:55.915Z,5.83
2018-04-08T11:05:23.480Z,6.00
2018-04-08T11:07:51.726Z,6.23
2018-04-08T11:10:19.206Z,5.80
2018-04-08T11:12:46.666Z,6.43
2018-04-08T11:15:14.138Z,5.87
2018-04-08T11:17:42.395Z,6.00
2018-04-08T11:20:11.366Z,6.47
2018-04-08T11:22:38.839Z,5.27
2018-04-08T11:25:06.288Z,5.53
2018-04-08T11:27:33.866Z,6.37
2018-04-08T11:30:01.421Z,6.30
2018-04-08T11:32:28.889Z,6.20
2018-04-08T11:34:56.424Z,5.57
2018-04-08T11:37:23.896Z,6.23
2018-04-08T11:39:51.347Z,6.10
2018-04-08T11:42:18.903Z,5.40
2018-04-08T11:44:46.468Z,6.20
2018-04-08T11:47:13.985Z,6.50
2018-04-08T11:49:42.173Z,5.87
2018-04-08T11:52:09.633Z,6.00
2018-04-08T11:54:37.105Z,6.47
2018-04-08T11:57:04.569Z,5.40
2018-04-08T11:59:32.030Z,6.17
2018-04-08T12:01:59.549Z,5.50
2018-04-08T12:04:27.732Z,6.40
2018-04-08T12:06:55.193Z,5.80
2018-04-08T12:09:22.661Z,6.33
2018-04-08T12:11:50.129Z,6.00
2018-04-08T12:14:17.683Z,5.27
2018-04-08T12:16:45.949Z,5.43
2018-04-08T12:19:13.471Z,5.27
2018-04-08T12:21:40.932Z,6.00
2018-04-08T12:24:08.402Z,5.70
2018-04-08T12:26:35.873Z,6.13
2018-04-08T12:29:03.338Z,5.90
2018-04-08T12:31:30.804Z,5.90
2018-04-08T12:33:58.260Z,5.47
2018-04-08T12:36:25.740Z,5.67
2018-04-08T12:38:53.980Z,6.60
2018-04-08T12:41:21.445Z,6.10
2018-04-08T12:43:49.000Z,5.57
2018-04-08T12:46:16.518Z,5.90
2018-04-08T12:48:43.977Z,5.50
2018-04-08T12:51:11.442Z,5.93
2018-04-08T12:53:38.914Z,6.80
2018-04-08T12:56:06.374Z,6.53
2018-04-08T12:58:33.902Z,6.30
2018-04-08T13:01:01.368Z,6.07
2018-04-08T13:03:28.833Z,5.80
2018-04-08T13:05:56.372Z,5.60
2018-04-08T13:08:23.825Z,6.57
2018-04-08T13:10:51.298Z,7.27
2018-04-08T13:13:18.764Z,6.17
2018-04-08T13:15:46.224Z,6.33
2018-04-08T13:18:13.690Z,6.80
2018-04-08T13:20:41.153Z,7.37
2018-04-08T13:23:08.622Z,6.80
2018-04-08T13:25:36.126Z,6.80
2018-04-08T13:28:03.634Z,6.63
2018-04-08T13:30:31.191Z,6.43
2018-04-08T13:32:58.748Z,7.00
2018-04-08T13:35:26.213Z,6.90
2018-04-08T13:37:54.477Z,7.17
2018-04-08T13:40:21.943Z,6.30
2018-04-08T13:42:49.517Z,7.33
2018-04-08T13:45:17.749Z,7.00
2018-04-08T13:47:45.214Z,7.57
2018-04-08T13:50:12.669Z,6.87
2018-04-08T13:52:40.148Z,7.43
2018-04-08T13:55:07.614Z,7.33
2018-04-08T13:57:35.873Z,7.70
2018-04-08T14:00:03.346Z,7.60
2018-04-08T14:02:31.659Z,6.80
2018-04-08T14:04:59.162Z,7.70
2018-04-08T14:07:26.629Z,7.47
2018-04-08T14:09:54.092Z,7.40
2018-04-08T14:12:22.324Z,5.90
2018-04-08T14:14:49.794Z,7.73
2018-04-08T14:17:17.333Z,7.47
2018-04-08T14:19:44.822Z,7.57
2018-04-08T14:22:12.290Z,7.67
2018-04-08T14:24:39.815Z,8.40
2018-04-08T14:27:07.266Z,7.70
2018-04-08T14:29:34.733Z,8.20
2018-04-08T14:32:02.190Z,7.80
2018-04-08T14:34:30.148Z,8.47
2018-04-08T14:36:57.618Z,8.93
2018-04-08T14:39:25.237Z,8.23
2018-04-08T14:41:53.465Z,8.77
2018-04-08T14:44:20.942Z,8.30
2018-04-08T14:46:49.161Z,8.37
2018-04-08T14:49:16.623Z,8.27
2018-04-08T14:51:44.084Z,8.80
2018-04-08T14:54:11.540Z,8.43
2018-04-08T14:56:39.015Z,9.30
2018-04-08T14:59:06.476Z,9.83
2018-04-08T15:01:33.940Z,10.17
2018-04-08T15:04:01.497Z,9.77
2018-04-08T15:06:28.962Z,9.37
2018-04-08T15:08:56.429Z,9.10
2018-04-08T15:11:24.697Z,11.07
2018-04-08T15:13:52.157Z,10.03
2018-04-08T15:16:20.393Z,10.03
2018-04-08T15:18:47.857Z,10.33
2018-04-08T15:21:15.329Z,9.23
2018-04-08T15:23:42.792Z,8.83
2018-04-08T15:26:10.263Z,10.30
2018-04-08T15:28:38.490Z,9.73
2018-04-08T15:31:05.970Z,9.77
2018-04-08T15:33:33.441Z,11.30
2018-04-08T15:36:00.918Z,10.03
2018-04-08T15:38:29.152Z,11.47
2018-04-08T15:40:56.629Z,9.17
2018-04-08T15:43:24.093Z,9.73
2018-04-08T15:45:52.408Z,10.57
2018-04-08T15:48:19.864Z,10.40
2018-04-08T15:50:47.349Z,10.90
2018-04-08T15:53:14.817Z,11.60
2018-04-08T15:55:42.298Z,11.80
2018-04-08T15:58:10.585Z,11.80
2018-04-08T16:00:38.835Z,11.30
2018-04-08T16:03:06.284Z,12.13
2018-04-08T16:05:33.792Z,11.77
2018-04-08T16:08:01.267Z,11.30
2018-04-08T16:10:28.768Z,11.97
2018-04-08T16:12:56.249Z,11.53
2018-04-08T16:15:24.541Z,11.23
2018-04-08T16:17:51.961Z,10.67
2018-04-08T16:20:19.768Z,12.30
2018-04-08T16:22:47.273Z,11.40
2018-04-08T16:25:14.736Z,12.17
2018-04-08T16:27:42.219Z,11.97
2018-04-08T16:30:10.449Z,11.10
2018-04-08T16:32:37.908Z,11.30
2018-04-08T16:35:05.383Z,11.70
2018-04-08T16:37:32.844Z,12.07
2018-04-08T16:40:01.079Z,12.63
2018-04-08T16:42:28.554Z,11.60
2018-04-08T16:44:56.017Z,13.80
2018-04-08T16:47:23.484Z,12.30
2018-04-08T16:49:51.037Z,12.17
2018-04-08T16:52:18.515Z,12.17
2018-04-08T16:54:46.736Z,12.57
2018-04-08T16:57:14.211Z,11.87
2018-04-08T16:59:41.693Z,12.07
2018-04-08T17:02:09.932Z,12.80
2018-04-08T17:04:37.392Z,12.53
2018-04-08T17:07:05.235Z,12.00
2018-04-08T17:09:32.702Z,12.03
2018-04-08T17:12:00.198Z,11.90
2018-04-08T17:14:27.758Z,11.83
2018-04-08T17:16:55.302Z,12.33
2018-04-08T17:19:22.772Z,13.77
2018-04-08T17:21:50.246Z,12.17
2018-04-08T17:24:18.482Z,13.10
2018-04-08T17:26:45.954Z,12.80
2018-04-08T17:29:13.430Z,11.90
2018-04-08T17:31:41.661Z,12.10
2018-04-08T17:34:09.157Z,13.00
2018-04-08T17:36:36.704Z,13.33
2018-04-08T17:39:04.170Z,12.20
2018-04-08T17:41:31.668Z,12.03
2018-04-08T17:43:59.473Z,12.70
2018-04-08T17:46:27.045Z,13.20
2018-04-08T17:48:56.023Z,13.27
2018-04-08T17:51:23.482Z,12.00
2018-04-08T17:53:52.469Z,13.50
2018-04-08T17:56:19.932Z,12.20
2018-04-08T17:58:47.400Z,13.60
2018-04-08T18:01:14.856Z,13.47
2018-04-08T18:03:42.326Z,12.67
2018-04-08T18:06:10.577Z,13.63
2018-04-08T18:08:38.818Z,13.63
2018-04-08T18:11:06.282Z,11.70
2018-04-08T18:13:33.775Z,14.40
2018-04-08T18:16:02.022Z,14.00
2018-04-08T18:18:29.490Z,14.17
2018-04-08T18:20:56.951Z,14.40
2018-04-08T18:23:25.245Z,13.70
2018-04-08T18:25:52.785Z,14.20
2018-04-08T18:28:20.254Z,13.57
2018-04-08T18:30:49.848Z,14.47
2018-04-08T18:33:18.137Z,13.90
2018-04-08T18:35:45.603Z,14.07
2018-04-08T18:38:13.078Z,13.43
2018-04-08T18:40:41.309Z,13.87
2018-04-08T18:43:08.781Z,13.77
2018-04-08T18:45:36.244Z,15.03
2018-04-08T18:48:03.719Z,14.67
2018-04-08T18:50:32.069Z,12.77
2018-04-08T18:52:59.554Z,14.37
2018-04-08T18:55:27.789Z,15.60
2018-04-08T18:57:55.360Z,12.33
2018-04-08T19:00:22.833Z,13.00
2018-04-08T19:02:51.068Z,14.10
2018-04-08T19:05:18.534Z,13.87
2018-04-08T19:07:45.996Z,13.73
2018-04-08T19:10:13.569Z,12.47
2018-04-08T19:12:41.038Z,13.00
2018-04-08T19:15:14.888Z,13.10
2018-04-08T19:17:48.213Z,14.50
2018-04-08T19:20:15.738Z,13.53
2018-04-08T19:22:43.363Z,13.13
2018-04-08T19:25:11.745Z,14.83
2018-04-08T19:27:40.107Z,16.60
2018-04-08T19:30:13.537Z,14.00
2018-04-08T19:32:41.095Z,14.00
2018-04-08T19:35:08.609Z,13.20
2018-04-08T19:37:36.072Z,14.80
2018-04-08T19:40:03.545Z,13.77
2018-04-08T19:42:32.417Z,14.17
2018-04-08T19:44:59.981Z,14.10
2018-04-08T19:47:27.466Z,13.30
2018-04-08T19:49:54.935Z,14.47
2018-04-08T19:52:22.410Z,19.20
2018-04-08T19:54:49.886Z,20.53
2018-04-08T19:57:17.362Z,18.73
2018-04-08T19:59:46.450Z,17.37
2018-04-08T20:02:14.673Z,17.00
2018-04-08T20:04:42.154Z,16.60
2018-04-08T20:07:09.629Z,17.93
2018-04-08T20:09:37.101Z,16.23
2018-04-08T20:12:06.077Z,15.80
2018-04-08T20:14:33.557Z,15.03
2018-04-08T20:17:01.796Z,16.30
2018-04-08T20:19:29.277Z,15.77
2018-04-08T20:21:58.249Z,15.40
2018-04-08T20:24:25.730Z,15.40
2018-04-08T20:26:53.965Z,16.30
2018-04-08T20:29:21.457Z,14.90
2018-04-08T20:31:49.019Z,16.10
2018-04-08T20:34:16.497Z,15.27
2018-04-08T20:36:44.849Z,14.57
2018-04-08T20:39:12.325Z,13.70
2018-04-08T20:41:40.559Z,14.73
2018-04-08T20:44:08.037Z,15.43
2018-04-08T20:46:35.502Z,15.97
2018-04-08T20:49:03.871Z,14.73
2018-04-08T20:51:31.433Z,15.60
2018-04-08T20:53:58.903Z,14.30
2018-04-08T20:56:28.167Z,14.90
2018-04-08T20:58:55.650Z,14.57
2018-04-08T21:01:23.885Z,14.80
2018-04-08T21:03:51.361Z,15.10
2018-04-08T21:06:18.840Z,14.10
2018-04-08T21:08:47.093Z,15.23
2018-04-08T21:11:14.577Z,14.63
2018-04-08T21:13:42.048Z,14.03
2018-04-08T21:16:10.281Z,14.60
2018-04-08T21:18:37.847Z,14.43
2018-04-08T21:21:05.337Z,14.97
2018-04-08T21:23:33.582Z,15.77
2018-04-08T21:26:01.149Z,15.30
2018-04-08T21:28:28.865Z,14.50
2018-04-08T21:30:56.465Z,14.73
2018-04-08T21:33:24.705Z,16.10
2018-04-08T21:35:52.183Z,14.23
2018-04-08T21:38:19.662Z,14.70
2018-04-08T21:40:47.904Z,13.83
2018-04-08T21:43:15.376Z,14.30
2018-04-08T21:45:42.953Z,15.07
2018-04-08T21:48:10.427Z,15.03
2018-04-08T21:50:38.681Z,15.30
2018-04-08T21:53:06.171Z,15.47
2018-04-08T21:55:33.645Z,14.50
2018-04-08T21:58:01.117Z,15.33
2018-04-08T22:00:28.597Z,14.40
2018-04-08T22:02:56.082Z,15.80
2018-04-08T22:05:24.343Z,16.50
2018-04-08T22:07:51.824Z,15.83
2018-04-08T22:10:20.177Z,16.60
2018-04-08T22:12:48.453Z,16.67
2018-04-08T22:15:15.942Z,16.47
2018-04-08T22:17:43.420Z,15.03
2018-04-08T22:20:10.909Z,15.90
2018-04-08T22:22:38.477Z,15.90
2018-04-08T22:25:05.954Z,16.77
2018-04-08T22:27:34.188Z,18.10
2018-04-08T22:30:01.725Z,17.87
2018-04-08T22:32:29.233Z,15.90
2018-04-08T22:34:56.716Z,16.23
2018-04-08T22:37:24.951Z,17.80
2018-04-08T22:39:52.532Z,15.13
2018-04-08T22:42:20.770Z,14.10
2018-04-08T22:44:48.248Z,16.73
2018-04-08T22:47:15.763Z,14.87
2018-04-08T22:49:43.231Z,14.10
2018-04-08T22:52:10.713Z,14.57
2018-04-08T22:54:38.193Z,13.83
2018-04-08T22:57:06.437Z,14.57
2018-04-08T22:59:33.927Z,15.07
2018-04-08T23:02:02.203Z,12.63
2018-04-08T23:04:29.756Z,13.80
2018-04-08T23:06:57.244Z,15.20
2018-04-08T23:09:24.713Z,14.40
2018-04-08T23:11:52.218Z,12.63
2018-04-08T23:14:19.797Z,13.80
2018-04-08T23:16:48.061Z,14.20
2018-04-08T23:19:15.613Z,12.70
2018-04-08T23:21:43.076Z,13.50
2018-04-08T23:24:10.566Z,12.10
2018-04-08T23:26:38.025Z,12.73
2018-04-08T23:29:05.500Z,13.90
2018-04-08T23:31:32.974Z,12.80
2018-04-08T23:34:00.559Z,12.47
2018-04-08T23:36:28.038Z,13.20
2018-04-08T23:38:56.284Z,12.67
2018-04-08T23:41:23.771Z,13.07
2018-04-08T23:43:52.012Z,12.67
2018-04-08T23:46:19.475Z,11.97
2018-04-08T23:48:46.962Z,13.30
2018-04-08T23:51:15.207Z,12.00
2018-04-08T23:53:42.687Z,13.20
2018-04-08T23:56:10.931Z,13.60
2018-04-08T23:58:38.406Z,14.03
